Boheme — 9V8514 — position and weather

sailwx.info

Track history (hours):
 
Tides and Currents Weather Stations Pressure Air Temp Water Temp Dewpoint Dewpoint Depression Visibility Wind Speed Wind Dir Waves Ship Positions

Boheme

Last reported at 2017-Oct-09 22:04 UTC. Time now 2017-Oct-17 20:19 UTC.
Position N 01°11' E 103°50'.

Length 227 m; draft 10.1 m.

Type: Cargo ship. MMSI: 563262000.

Date/timePositionNaut miles runAvg speedWind from/ knotsBaromVisibWave heightAir tempDewpointWater temp
2017-Oct-09 22:04N 01°11' E 103°50'0 3.5
2017-Oct-09 22:00N 01°11' E 103°50'2 3.6
2017-Oct-09 21:30N 01°12' E 103°51'2 3.3
2017-Oct-09 21:00N 01°13' E 103°53'2 3.0
2017-Oct-09 20:28N 01°14' E 103°54'2 3.2
2017-Oct-09 20:00N 01°14' E 103°56'6 4.6
2017-Oct-09 18:40N 01°18' E 104°01'0 0.0
2017-Oct-09 18:29N 01°18' E 104°01'0 0.0
2017-Oct-09 17:43N 01°18' E 104°01'4125.0
2017-Oct-09 16:04N 01°18' E 103°20'114.3
2017-Oct-09 15:59N 01°17' E 103°21'814.2
2017-Oct-09 15:27N 01°13' E 103°28'715.2
2017-Oct-09 14:59N 01°12' E 103°35'715.0
2017-Oct-09 14:30N 01°09' E 103°42'611.5
2017-Oct-09 14:01N 01°10' E 103°47'713.3
2017-Oct-09 13:30N 01°13' E 103°53'612.2
2017-Oct-09 13:00N 01°16' E 103°59'3 3.2
2017-Oct-09 12:04N 01°18' E 104°01'3 2.5
2017-Oct-09 10:47N 01°16' E 103°58'0 0.6
2017-Oct-09 10:30N 01°16' E 103°58'0 0.5
2017-Oct-09 09:59N 01°16' E 103°58'0 0.6
2017-Oct-09 09:30N 01°16' E 103°59'0 0.4
2017-Oct-09 09:00N 01°16' E 103°59'10 6.5
2017-Oct-09 07:25N 01°16' E 104°09'1 1.1
2017-Oct-09 06:51N 01°17' E 104°10'922.3
2017-Oct-09 06:28N 01°18' E 104°01'0 0.0
2017-Oct-09 03:01N 01°18' E 104°01'0 0.3
2017-Oct-09 02:57N 01°18' E 104°01'2 3.6
2017-Oct-09 02:25N 01°16' E 103°59'1 2.7
2017-Oct-09 02:00N 01°16' E 103°59'1 2.0
2017-Oct-09 01:30N 01°16' E 103°60'2 4.0
2017-Oct-09 00:53N 01°16' E 104°02'2 6.3
2017-Oct-09 00:30N 01°16' E 104°05'  
Track history (hours):
 
Tides and Currents Weather Stations Pressure Air Temp Water Temp Dewpoint Dewpoint Depression Visibility Wind Speed Wind Dir Waves Ship Positions

Boheme

Last reported at 2017-Oct-09 22:04 UTC. Time now 2017-Oct-17 20:19 UTC.
Position N 01°11' E 103°50'.

Length 227 m; draft 10.1 m.

Type: Cargo ship. MMSI: 563262000.

Date/timePositionNaut miles runAvg speedWind from/ knotsBaromVisibWave heightAir tempDewpointWater temp
2017-Oct-09 22:04N 01°11' E 103°50'0 3.5
2017-Oct-09 22:00N 01°11' E 103°50'2 3.6
2017-Oct-09 21:30N 01°12' E 103°51'2 3.3
2017-Oct-09 21:00N 01°13' E 103°53'2 3.0
2017-Oct-09 20:28N 01°14' E 103°54'2 3.2
2017-Oct-09 20:00N 01°14' E 103°56'6 4.6
2017-Oct-09 18:40N 01°18' E 104°01'0 0.0
2017-Oct-09 18:29N 01°18' E 104°01'0 0.0
2017-Oct-09 17:43N 01°18' E 104°01'4125.0
2017-Oct-09 16:04N 01°18' E 103°20'114.3
2017-Oct-09 15:59N 01°17' E 103°21'814.2
2017-Oct-09 15:27N 01°13' E 103°28'715.2
2017-Oct-09 14:59N 01°12' E 103°35'715.0
2017-Oct-09 14:30N 01°09' E 103°42'611.5
2017-Oct-09 14:01N 01°10' E 103°47'713.3
2017-Oct-09 13:30N 01°13' E 103°53'612.2
2017-Oct-09 13:00N 01°16' E 103°59'3 3.2
2017-Oct-09 12:04N 01°18' E 104°01'3 2.5
2017-Oct-09 10:47N 01°16' E 103°58'0 0.6
2017-Oct-09 10:30N 01°16' E 103°58'0 0.5
2017-Oct-09 09:59N 01°16' E 103°58'0 0.6
2017-Oct-09 09:30N 01°16' E 103°59'0 0.4
2017-Oct-09 09:00N 01°16' E 103°59'10 6.5
2017-Oct-09 07:25N 01°16' E 104°09'1 1.1
2017-Oct-09 06:51N 01°17' E 104°10'922.3
2017-Oct-09 06:28N 01°18' E 104°01'0 0.0
2017-Oct-09 03:01N 01°18' E 104°01'0 0.3
2017-Oct-09 02:57N 01°18' E 104°01'2 3.6
2017-Oct-09 02:25N 01°16' E 103°59'1 2.7
2017-Oct-09 02:00N 01°16' E 103°59'1 2.0
2017-Oct-09 01:30N 01°16' E 103°60'2 4.0
2017-Oct-09 00:53N 01°16' E 104°02'2 6.3
2017-Oct-09 00:30N 01°16' E 104°05'  

Dump ship's entire track history